createdAt,value
2022-11-07T00:02:13.343Z,35.03
2022-11-07T00:04:40.662Z,41.92
2022-11-07T00:07:08.041Z,41.45
2022-11-07T00:09:35.268Z,38.50
2022-11-07T00:12:02.306Z,43.17
2022-11-07T00:14:29.283Z,33.42
2022-11-07T00:16:56.299Z,28.27
2022-11-07T00:19:23.333Z,27.90
2022-11-07T00:21:50.820Z,24.73
2022-11-07T00:24:18.943Z,22.30
2022-11-07T00:26:47.404Z,20.17
2022-11-07T00:29:16.092Z,24.02
2022-11-07T00:31:43.406Z,21.90
2022-11-07T00:34:10.857Z,21.23
2022-11-07T00:36:38.084Z,23.85
2022-11-07T00:39:06.577Z,25.38
2022-11-07T00:41:33.780Z,25.20
2022-11-07T00:44:00.748Z,26.30
2022-11-07T00:46:27.758Z,24.13
2022-11-07T00:48:55.135Z,22.48
2022-11-07T00:51:27.147Z,26.92
2022-11-07T00:53:54.455Z,28.67
2022-11-07T00:56:24.112Z,23.50
2022-11-07T00:58:58.702Z,23.00
2022-11-07T01:01:31.680Z,24.73
2022-11-07T01:06:46.038Z,32.00
2022-11-07T01:09:19.071Z,33.28
2022-11-07T01:14:15.857Z,33.95
2022-11-07T01:16:43.184Z,29.35
2022-11-07T01:19:10.335Z,31.42
2022-11-07T01:21:39.412Z,32.75
2022-11-07T01:24:08.600Z,29.58
2022-11-07T01:26:37.275Z,30.05
2022-11-07T01:29:04.751Z,29.60
2022-11-07T01:31:31.997Z,28.27
2022-11-07T01:34:00.218Z,29.63
2022-11-07T01:36:27.941Z,24.40
2022-11-07T01:38:54.975Z,34.45
2022-11-07T01:41:25.700Z,26.70
2022-11-07T01:44:03.744Z,27.63
2022-11-07T01:46:45.054Z,27.23
2022-11-07T01:49:23.244Z,29.92
2022-11-07T01:51:50.323Z,37.22
2022-11-07T01:54:22.593Z,37.08
2022-11-07T01:56:50.902Z,36.25
2022-11-07T01:59:23.178Z,40.50
2022-11-07T02:01:50.652Z,41.38
2022-11-07T02:04:20.610Z,52.83
2022-11-07T02:06:52.447Z,48.42
2022-11-07T02:09:19.505Z,53.00
2022-11-07T02:11:46.471Z,48.13
2022-11-07T02:14:17.048Z,53.03
2022-11-07T02:16:44.537Z,50.10
2022-11-07T02:19:30.483Z,47.42
2022-11-07T02:22:22.594Z,51.60
2022-11-07T02:24:53.975Z,49.13
2022-11-07T02:27:24.334Z,53.95
2022-11-07T02:30:00.476Z,46.38
2022-11-07T02:32:27.471Z,45.75
2022-11-07T02:35:02.941Z,44.47
2022-11-07T02:37:36.384Z,53.15
2022-11-07T02:40:09.706Z,45.95
2022-11-07T02:42:44.524Z,43.38
2022-11-07T02:45:17.748Z,42.58
2022-11-07T02:47:47.775Z,43.80
2022-11-07T02:50:16.673Z,41.15
2022-11-07T02:52:44.038Z,44.53
2022-11-07T02:55:12.983Z,42.15
2022-11-07T02:57:40.323Z,41.50
2022-11-07T03:00:12.280Z,40.33
2022-11-07T03:02:39.887Z,40.55
2022-11-07T03:05:07.381Z,33.47
2022-11-07T03:07:34.358Z,36.70
2022-11-07T03:10:01.346Z,39.00
2022-11-07T03:12:28.292Z,35.83
2022-11-07T03:14:55.361Z,40.03
2022-11-07T03:17:22.373Z,44.90
2022-11-07T03:19:49.367Z,35.05
2022-11-07T03:22:16.478Z,36.97
2022-11-07T03:24:43.469Z,36.97
2022-11-07T03:27:10.474Z,37.78
2022-11-07T03:29:37.512Z,35.33
2022-11-07T03:32:04.689Z,36.92
2022-11-07T03:34:31.666Z,30.40
2022-11-07T03:36:58.794Z,38.45
2022-11-07T03:39:26.167Z,30.90
2022-11-07T03:41:53.174Z,33.58
2022-11-07T03:44:20.202Z,39.88
2022-11-07T03:46:47.192Z,33.53
2022-11-07T03:49:14.186Z,36.47
2022-11-07T03:51:41.303Z,31.30
2022-11-07T03:54:08.344Z,32.35
2022-11-07T03:56:35.357Z,37.63
2022-11-07T03:59:02.761Z,35.47
2022-11-07T04:01:29.958Z,38.42
2022-11-07T04:03:56.997Z,37.20
2022-11-07T04:06:24.388Z,40.50
2022-11-07T04:08:51.363Z,35.58
2022-11-07T04:11:36.954Z,34.05
2022-11-07T04:14:22.716Z,33.15
2022-11-07T04:17:08.581Z,32.80
2022-11-07T04:19:35.541Z,32.05
2022-11-07T04:22:02.512Z,36.05
2022-11-07T04:24:29.586Z,33.28
2022-11-07T04:27:14.862Z,33.50
2022-11-07T04:29:41.871Z,31.63
2022-11-07T04:32:08.974Z,33.08
2022-11-07T04:34:35.952Z,33.63
2022-11-07T04:37:02.982Z,35.95
2022-11-07T04:39:29.953Z,29.63
2022-11-07T04:41:57.277Z,35.20
2022-11-07T04:44:24.336Z,32.35
2022-11-07T04:46:51.331Z,30.38
2022-11-07T04:49:18.746Z,31.50
2022-11-07T04:51:45.791Z,29.88
2022-11-07T04:54:17.116Z,33.65
2022-11-07T04:56:44.065Z,31.50
2022-11-07T04:59:11.076Z,25.10
2022-11-07T05:01:38.080Z,26.42
2022-11-07T05:04:05.229Z,28.17
2022-11-07T05:06:36.577Z,33.72
2022-11-07T05:09:04.059Z,28.27
2022-11-07T05:11:31.076Z,29.98
2022-11-07T05:13:58.075Z,30.95
2022-11-07T05:16:25.032Z,31.48
2022-11-07T05:18:51.993Z,27.63
2022-11-07T05:21:19.056Z,31.40
2022-11-07T05:23:46.036Z,33.35
2022-11-07T05:26:13.084Z,30.35
2022-11-07T05:28:40.135Z,33.03
2022-11-07T05:31:08.783Z,25.08
2022-11-07T05:33:35.986Z,26.10
2022-11-07T05:36:29.427Z,22.23
2022-11-07T05:41:23.326Z,17.70
2022-11-07T05:43:50.361Z,24.88
2022-11-07T05:46:17.679Z,19.15
2022-11-07T05:48:44.686Z,16.52
2022-11-07T05:51:11.733Z,17.83
2022-11-07T05:53:38.772Z,19.35
2022-11-07T05:56:06.098Z,15.23
2022-11-07T05:58:33.273Z,20.02
2022-11-07T06:01:07.238Z,15.90
2022-11-07T06:03:34.376Z,18.67
2022-11-07T06:06:01.414Z,17.45
2022-11-07T06:08:28.435Z,16.63
2022-11-07T06:10:55.624Z,18.02
2022-11-07T06:13:22.615Z,17.70
2022-11-07T06:15:49.674Z,18.05
2022-11-07T06:18:21.152Z,21.40
2022-11-07T06:20:48.342Z,17.73
2022-11-07T06:23:15.962Z,24.45
2022-11-07T06:25:43.321Z,25.42
2022-11-07T06:28:11.734Z,26.15
2022-11-07T06:30:38.999Z,21.70
2022-11-07T06:33:08.636Z,22.33
2022-11-07T06:35:37.044Z,19.50
2022-11-07T06:38:06.401Z,23.10
2022-11-07T06:40:33.984Z,19.70
2022-11-07T06:43:14.766Z,28.77
2022-11-07T06:45:42.479Z,19.65
2022-11-07T06:48:10.189Z,18.02
2022-11-07T06:50:37.838Z,18.38
2022-11-07T06:53:13.765Z,21.30
2022-11-07T06:55:41.375Z,15.45
2022-11-07T06:58:08.655Z,14.15
2022-11-07T07:00:37.350Z,14.43
2022-11-07T07:03:04.995Z,15.75
2022-11-07T07:05:33.677Z,15.57
2022-11-07T07:08:01.052Z,13.73
2022-11-07T07:10:28.048Z,14.52
2022-11-07T07:12:56.665Z,13.38
2022-11-07T07:15:24.203Z,12.38
2022-11-07T07:17:51.205Z,12.07
2022-11-07T07:20:18.310Z,11.55
2022-11-07T07:22:47.372Z,10.77
2022-11-07T07:25:16.447Z,10.82
2022-11-07T07:27:43.488Z,11.63
2022-11-07T07:30:11.337Z,11.90
2022-11-07T07:32:38.611Z,10.18
2022-11-07T07:35:06.700Z,9.20
2022-11-07T07:37:33.987Z,14.15
2022-11-07T07:40:00.958Z,8.93
2022-11-07T07:42:27.966Z,10.93
2022-11-07T07:44:55.050Z,9.82
2022-11-07T07:47:22.064Z,12.00
2022-11-07T07:49:49.066Z,12.52
2022-11-07T07:52:16.155Z,12.90
2022-11-07T07:54:43.198Z,11.57
2022-11-07T07:57:10.371Z,15.82
2022-11-07T07:59:37.479Z,14.13
2022-11-07T08:02:04.731Z,13.13
2022-11-07T08:04:32.030Z,14.00
2022-11-07T08:06:59.054Z,16.85
2022-11-07T08:09:26.122Z,15.25
2022-11-07T08:11:53.149Z,13.50
2022-11-07T08:14:20.222Z,13.30
2022-11-07T08:16:47.215Z,12.30
2022-11-07T08:19:14.310Z,11.07
2022-11-07T08:21:41.340Z,13.55
2022-11-07T08:24:09.064Z,12.02
2022-11-07T08:26:37.648Z,14.30
2022-11-07T08:29:05.253Z,15.02
2022-11-07T08:31:32.269Z,12.82
2022-11-07T08:34:00.492Z,10.43
2022-11-07T08:36:28.316Z,10.45
2022-11-07T08:38:55.908Z,12.60
2022-11-07T08:41:23.060Z,12.75
2022-11-07T08:43:50.092Z,15.40
2022-11-07T08:46:17.089Z,13.68
2022-11-07T08:48:44.352Z,15.75
2022-11-07T08:51:11.468Z,14.77
2022-11-07T08:53:38.511Z,15.02
2022-11-07T08:56:07.929Z,15.50
2022-11-07T08:58:35.729Z,16.70
2022-11-07T09:01:09.637Z,15.25
2022-11-07T09:03:46.205Z,15.20
2022-11-07T09:06:16.511Z,15.20
2022-11-07T09:08:44.132Z,18.20
2022-11-07T09:11:11.528Z,13.77
2022-11-07T09:13:38.534Z,11.57
2022-11-07T09:16:05.810Z,13.98
2022-11-07T09:18:33.564Z,13.07
2022-11-07T09:21:00.558Z,11.40
2022-11-07T09:23:27.960Z,14.70
2022-11-07T09:25:55.377Z,13.25
2022-11-07T09:28:22.694Z,15.25
2022-11-07T09:30:54.689Z,13.35
2022-11-07T09:33:22.435Z,16.10
2022-11-07T09:35:50.122Z,14.23
2022-11-07T09:38:17.596Z,14.88
2022-11-07T09:41:11.023Z,13.32
2022-11-07T09:44:00.738Z,13.23
2022-11-07T09:46:33.608Z,15.95
2022-11-07T09:51:45.953Z,14.30
2022-11-07T09:54:17.801Z,14.73
2022-11-07T09:56:45.179Z,15.70
2022-11-07T09:59:26.169Z,12.35
2022-11-07T10:01:53.270Z,12.63
2022-11-07T10:04:25.653Z,15.02
2022-11-07T10:07:35.464Z,15.32
2022-11-07T10:10:18.848Z,14.52
2022-11-07T10:12:51.779Z,12.98
2022-11-07T10:18:15.053Z,15.50
2022-11-07T10:21:16.044Z,13.77
2022-11-07T10:23:48.872Z,14.43
2022-11-07T10:28:49.338Z,16.05
2022-11-07T10:31:16.664Z,16.33
2022-11-07T10:33:56.956Z,13.20
2022-11-07T10:36:27.212Z,14.75
2022-11-07T10:38:54.886Z,18.35
2022-11-07T10:41:27.446Z,19.45
2022-11-07T10:44:11.120Z,15.98
2022-11-07T10:46:43.583Z,17.15
2022-11-07T10:49:23.566Z,15.52
2022-11-07T10:51:51.161Z,15.70
2022-11-07T10:54:29.683Z,13.50
2022-11-07T10:57:12.348Z,14.52
2022-11-07T10:59:58.624Z,16.65
2022-11-07T11:02:27.207Z,19.30
2022-11-07T11:05:00.357Z,19.92
2022-11-07T11:07:35.722Z,19.25
2022-11-07T11:10:04.199Z,19.33
2022-11-07T11:12:34.903Z,20.15
2022-11-07T11:15:04.972Z,19.48
2022-11-07T11:17:32.803Z,19.33
2022-11-07T11:19:59.921Z,19.85
2022-11-07T11:22:29.396Z,16.75
2022-11-07T11:25:04.442Z,18.00
2022-11-07T11:27:34.800Z,19.17
2022-11-07T11:30:07.060Z,16.85
2022-11-07T11:32:42.819Z,16.88
2022-11-07T11:35:24.757Z,17.45
2022-11-07T11:38:09.374Z,16.13
2022-11-07T11:40:40.574Z,15.52
2022-11-07T11:43:31.785Z,16.92
2022-11-07T11:46:03.000Z,12.98
2022-11-07T11:48:47.163Z,14.98
2022-11-07T11:51:27.291Z,15.10
2022-11-07T11:53:54.903Z,14.60
2022-11-07T11:56:39.806Z,16.00
2022-11-07T11:59:25.485Z,17.88
2022-11-07T12:02:01.476Z,17.00
2022-11-07T12:04:37.899Z,17.80
2022-11-07T12:07:15.349Z,17.77
2022-11-07T12:09:54.036Z,14.02
2022-11-07T12:12:52.046Z,15.40
2022-11-07T12:15:54.305Z,14.45
2022-11-07T12:18:58.945Z,13.15
2022-11-07T12:21:49.072Z,15.82
2022-11-07T12:24:33.991Z,17.23
2022-11-07T12:27:16.031Z,16.52
2022-11-07T12:30:13.676Z,18.38
2022-11-07T12:32:50.104Z,15.98
2022-11-07T12:35:49.043Z,15.52
2022-11-07T12:38:32.477Z,19.30
2022-11-07T12:41:20.724Z,16.25
2022-11-07T12:44:19.489Z,17.73
2022-11-07T12:46:52.088Z,17.65
2022-11-07T12:49:24.876Z,16.23
2022-11-07T12:52:12.072Z,18.17
2022-11-07T12:55:00.858Z,18.67
2022-11-07T12:57:33.277Z,18.05
2022-11-07T13:00:09.568Z,15.05
2022-11-07T13:02:59.573Z,13.85
2022-11-07T13:06:00.203Z,24.20
2022-11-07T13:08:57.497Z,16.60
2022-11-07T13:11:43.102Z,18.13
2022-11-07T13:14:24.038Z,14.85
2022-11-07T13:17:20.241Z,15.65
2022-11-07T13:20:00.269Z,21.67
2022-11-07T13:22:41.410Z,16.10
2022-11-07T13:25:22.432Z,16.73
2022-11-07T13:27:55.626Z,15.15
2022-11-07T13:30:30.328Z,16.95
2022-11-07T13:32:59.102Z,15.20
2022-11-07T13:35:31.264Z,16.35
2022-11-07T13:38:19.506Z,12.55
2022-11-07T13:40:49.233Z,22.90
2022-11-07T13:43:34.291Z,16.98
2022-11-07T13:46:04.798Z,22.83
2022-11-07T13:48:40.860Z,22.05
2022-11-07T13:51:20.390Z,14.98
2022-11-07T13:54:28.761Z,18.35
2022-11-07T13:57:17.616Z,19.95
2022-11-07T14:00:00.136Z,13.52
2022-11-07T14:02:30.501Z,15.23
2022-11-07T14:05:16.289Z,13.85
2022-11-07T14:08:04.589Z,12.43
2022-11-07T14:10:38.079Z,15.02
2022-11-07T14:13:13.001Z,14.23
2022-11-07T14:15:54.107Z,12.65
2022-11-07T14:18:23.029Z,10.57
2022-11-07T14:20:56.384Z,13.00
2022-11-07T14:23:33.110Z,18.00
2022-11-07T14:26:23.549Z,17.75
2022-11-07T14:28:51.085Z,15.15
2022-11-07T14:31:20.571Z,17.13
2022-11-07T14:33:53.924Z,13.45
2022-11-07T14:36:21.716Z,12.00
2022-11-07T14:38:50.977Z,16.98
2022-11-07T14:41:20.117Z,13.88
2022-11-07T14:43:48.127Z,20.45
2022-11-07T14:46:24.301Z,19.85
2022-11-07T14:48:53.492Z,15.27
2022-11-07T14:51:25.909Z,15.35
2022-11-07T14:54:06.411Z,15.77
2022-11-07T14:56:38.687Z,14.35
2022-11-07T14:59:11.605Z,15.50
2022-11-07T15:04:30.887Z,14.13
2022-11-07T15:07:29.283Z,13.77
2022-11-07T15:09:59.493Z,14.48
2022-11-07T15:12:29.339Z,15.73
2022-11-07T15:15:02.726Z,13.38
2022-11-07T15:17:30.325Z,13.43
2022-11-07T15:20:01.759Z,14.18
2022-11-07T15:22:37.483Z,19.05
2022-11-07T15:25:25.333Z,17.88
2022-11-07T15:27:52.759Z,17.65
2022-11-07T15:30:34.889Z,24.52
2022-11-07T15:33:01.967Z,24.85
2022-11-07T15:35:45.167Z,24.17
2022-11-07T15:38:19.707Z,26.02
2022-11-07T15:40:47.220Z,26.67
2022-11-07T15:43:14.425Z,23.08
2022-11-07T15:45:42.408Z,18.40
2022-11-07T15:48:14.772Z,18.50
2022-11-07T15:50:44.075Z,23.55
2022-11-07T15:53:24.093Z,18.17
2022-11-07T15:56:01.561Z,19.42
2022-11-07T15:58:30.166Z,19.17
2022-11-07T16:00:58.919Z,20.63
2022-11-07T16:03:28.390Z,18.33
2022-11-07T16:06:01.883Z,20.60
2022-11-07T16:08:30.343Z,19.63
2022-11-07T16:11:01.231Z,21.95
2022-11-07T16:13:29.095Z,21.00
2022-11-07T16:16:01.220Z,18.88
2022-11-07T16:18:31.340Z,16.27
2022-11-07T16:20:58.303Z,19.25
2022-11-07T16:23:25.375Z,20.45
2022-11-07T16:25:52.413Z,23.42
2022-11-07T16:28:48.894Z,23.55
2022-11-07T16:31:15.843Z,22.48
2022-11-07T16:33:42.818Z,23.55
2022-11-07T16:36:24.587Z,24.92
2022-11-07T16:38:52.757Z,29.27
2022-11-07T16:41:20.264Z,24.63
2022-11-07T16:43:47.922Z,26.45
2022-11-07T16:46:16.772Z,23.67
2022-11-07T16:48:45.329Z,26.85
2022-11-07T16:51:20.158Z,31.10
2022-11-07T16:53:47.691Z,33.15
2022-11-07T16:56:31.113Z,27.50
2022-11-07T16:58:59.172Z,25.63
2022-11-07T17:01:27.949Z,24.60
2022-11-07T17:03:55.212Z,31.73
2022-11-07T17:06:31.990Z,30.15
2022-11-07T17:09:07.433Z,25.25
2022-11-07T17:11:37.973Z,21.35
2022-11-07T17:14:05.127Z,26.05
2022-11-07T17:16:35.807Z,23.15
2022-11-07T17:19:05.433Z,23.85
2022-11-07T17:21:36.967Z,29.45
2022-11-07T17:24:04.902Z,26.73
2022-11-07T17:26:35.941Z,27.17
2022-11-07T17:29:08.382Z,28.55
2022-11-07T17:31:35.369Z,26.00
2022-11-07T17:34:02.680Z,23.83
2022-11-07T17:36:37.691Z,24.95
2022-11-07T17:39:11.043Z,25.30
2022-11-07T17:44:06.389Z,26.55
2022-11-07T17:46:36.010Z,25.13
2022-11-07T17:49:07.356Z,22.92
2022-11-07T17:51:38.298Z,22.00
2022-11-07T17:54:05.781Z,20.52
2022-11-07T17:56:34.546Z,21.52
2022-11-07T17:59:05.112Z,23.70
2022-11-07T18:01:35.003Z,28.10
2022-11-07T18:04:02.539Z,29.40
2022-11-07T18:06:29.900Z,26.58
2022-11-07T18:09:00.409Z,26.30
2022-11-07T18:11:29.764Z,23.40
2022-11-07T18:13:58.484Z,23.80
2022-11-07T18:16:38.615Z,23.95
2022-11-07T18:19:09.756Z,21.08
2022-11-07T18:21:36.887Z,21.30
2022-11-07T18:24:03.967Z,22.70
2022-11-07T18:26:31.284Z,26.85
2022-11-07T18:29:02.896Z,32.20
2022-11-07T18:31:30.397Z,38.35
2022-11-07T18:33:59.357Z,35.35
2022-11-07T18:36:27.616Z,29.40
2022-11-07T18:38:54.675Z,26.00
2022-11-07T18:41:23.894Z,26.55
2022-11-07T18:43:51.461Z,29.80
2022-11-07T18:46:20.165Z,24.52
2022-11-07T18:48:47.207Z,25.27
2022-11-07T18:51:21.169Z,25.55
2022-11-07T18:53:49.385Z,28.08
2022-11-07T18:56:16.734Z,33.10
2022-11-07T18:58:44.683Z,53.58
2022-11-07T19:01:19.670Z,48.42
2022-11-07T19:03:47.914Z,52.85
2022-11-07T19:06:18.344Z,50.95
2022-11-07T19:08:47.496Z,57.83
2022-11-07T19:11:17.799Z,55.08
2022-11-07T19:13:46.047Z,77.97
2022-11-07T19:16:16.209Z,60.15
2022-11-07T19:18:49.610Z,58.20
2022-11-07T19:21:19.962Z,48.00
2022-11-07T19:23:48.251Z,49.03
2022-11-07T19:26:15.274Z,47.08
2022-11-07T19:28:42.322Z,49.80
2022-11-07T19:31:12.994Z,47.10
2022-11-07T19:33:44.264Z,59.42
2022-11-07T19:36:19.979Z,60.20
2022-11-07T19:38:51.172Z,62.38
2022-11-07T19:41:18.894Z,64.65
2022-11-07T19:43:50.226Z,64.63
2022-11-07T19:46:23.029Z,61.85
2022-11-07T19:48:51.081Z,70.28
2022-11-07T19:51:22.725Z,67.55
2022-11-07T19:53:54.760Z,62.45
2022-11-07T19:56:22.731Z,66.13
2022-11-07T19:58:54.966Z,59.95
2022-11-07T20:01:27.851Z,85.13
2022-11-07T20:03:56.119Z,74.47
2022-11-07T20:06:26.346Z,72.40
2022-11-07T20:08:53.583Z,71.38
2022-11-07T20:11:23.212Z,67.30
2022-11-07T20:13:50.658Z,89.13
2022-11-07T20:16:17.988Z,93.90
2022-11-07T20:18:45.394Z,89.00
2022-11-07T20:21:17.936Z,85.18
2022-11-07T20:23:45.919Z,97.85
2022-11-07T20:26:15.936Z,90.60
2022-11-07T20:28:43.295Z,96.07
2022-11-07T20:31:11.506Z,90.35
2022-11-07T20:33:38.737Z,97.25
2022-11-07T20:36:08.733Z,87.72
2022-11-07T20:38:36.300Z,85.38
2022-11-07T20:41:05.529Z,87.70
2022-11-07T20:43:34.117Z,101.30
2022-11-07T20:46:09.451Z,98.95
2022-11-07T20:48:37.545Z,99.65
2022-11-07T20:51:25.492Z,104.03
2022-11-07T20:53:54.957Z,111.43
2022-11-07T20:56:24.581Z,111.65
2022-11-07T20:58:52.306Z,106.90
2022-11-07T21:01:23.670Z,88.13
2022-11-07T21:03:51.446Z,58.20
2022-11-07T21:06:19.547Z,61.17
2022-11-07T21:08:49.020Z,57.58
2022-11-07T21:11:16.920Z,57.13
2022-11-07T21:13:49.616Z,55.58
2022-11-07T21:16:20.504Z,56.03
2022-11-07T21:18:48.044Z,58.03
2022-11-07T21:21:24.421Z,53.35
2022-11-07T21:23:52.386Z,61.33
2022-11-07T21:26:27.743Z,60.65
2022-11-07T21:28:56.030Z,61.50
2022-11-07T21:31:28.562Z,57.70
2022-11-07T21:33:56.470Z,82.78
2022-11-07T21:36:28.525Z,84.28
2022-11-07T21:38:56.849Z,94.32
2022-11-07T21:41:24.197Z,54.75
2022-11-07T21:43:51.890Z,51.80
2022-11-07T21:46:27.639Z,58.17
2022-11-07T21:48:55.705Z,81.40
2022-11-07T21:51:25.359Z,112.70
2022-11-07T21:53:53.049Z,102.50
2022-11-07T21:56:32.819Z,104.38
2022-11-07T21:59:08.542Z,90.93
2022-11-07T22:01:37.429Z,113.47
2022-11-07T22:04:09.157Z,103.50
2022-11-07T22:06:40.165Z,124.13
2022-11-07T22:09:09.083Z,122.97
2022-11-07T22:11:36.375Z,121.57
2022-11-07T22:14:04.153Z,119.80
2022-11-07T22:16:31.924Z,104.38
2022-11-07T22:19:00.269Z,107.50
2022-11-07T22:21:27.522Z,114.95
2022-11-07T22:23:56.465Z,112.47
2022-11-07T22:26:25.415Z,114.85
2022-11-07T22:28:52.951Z,113.82
2022-11-07T22:31:25.884Z,119.93
2022-11-07T22:33:54.447Z,118.53
2022-11-07T22:36:22.052Z,111.25
2022-11-07T22:38:49.507Z,104.30
2022-11-07T22:41:22.219Z,124.85
2022-11-07T22:43:49.822Z,108.68
2022-11-07T22:46:20.125Z,95.15
2022-11-07T22:48:50.397Z,98.82
2022-11-07T22:51:29.814Z,97.68
2022-11-07T22:53:59.209Z,97.50
2022-11-07T22:56:26.598Z,96.30
2022-11-07T22:58:57.315Z,60.40
2022-11-07T23:01:30.543Z,75.45
2022-11-07T23:03:59.015Z,55.05
2022-11-07T23:06:27.548Z,52.60
2022-11-07T23:08:54.982Z,61.03
2022-11-07T23:11:45.343Z,58.38
2022-11-07T23:14:13.451Z,60.20
2022-11-07T23:16:44.790Z,66.93
2022-11-07T23:19:14.310Z,61.22
2022-11-07T23:21:41.686Z,78.75
2022-11-07T23:24:09.403Z,66.63
2022-11-07T23:26:37.047Z,61.08
2022-11-07T23:29:10.949Z,56.13
2022-11-07T23:31:43.697Z,53.55
2022-11-07T23:34:11.015Z,48.67
2022-11-07T23:36:40.892Z,50.15
2022-11-07T23:39:09.978Z,56.97
2022-11-07T23:41:37.159Z,49.60
2022-11-07T23:44:04.783Z,47.10
2022-11-07T23:46:50.373Z,43.08
2022-11-07T23:49:35.548Z,41.78
2022-11-07T23:52:02.825Z,40.28
2022-11-07T23:54:48.514Z,39.67
2022-11-07T23:57:15.939Z,29.85
